EW6430 Weather Reports


time (UTC)temp
C
wind
direction
speed
KPH
gust
KPH
rain 1hr
cm
rain 24hr
cm
rain mn
cm
humidity
%
barometer
mb
20200606175649 21 240 0.0 0.0 0.00 0.00 0.00 67 1005.2
20200606175141 21 240 0.0 0.0 0.00 0.00 0.00 65 1005.3
20200606174639 21 240 0.0 0.0 0.00 0.00 0.00 64 1005.2
20200606174513 21 240 0.0 0.0 0.00 0.03 0.00 64 1004.8
20200606174132 22 240 0.0 0.0 0.00 0.00 0.00 63 1005.2
20200606173623 22 240 0.0 0.0 0.00 0.00 0.00 63 1005.2
20200606173253 22 240 0.0 0.0 0.00 0.03 0.00 61 1004.8
20200606173115 22 240 0.0 0.0 0.00 0.00 0.00 61 1005.2
20200606172606 22 240 0.0 0.0 0.00 0.00 0.00 61 1005.2
20200606172057 22 246 0.0 0.0 0.00 0.03 0.00 60 1005.2
20200606171551 22 253 0.0 0.0 0.00 0.03 0.00 57 1004.8
20200606171549 22 242 0.0 1.6 0.00 0.03 0.00 57 1005.2
20200606171039 22 255 0.0 1.6 0.00 0.03 0.00 57 1005.2
20200606170531 23 232 0.0 1.6 0.00 0.03 0.00 56 1005.2
20200606170143 22 244 0.0 0.0 0.00 0.03 0.00 58 1004.8
20200606170040 23 243 0.0 0.0 0.00 0.03 0.00 58 1005.1
20200606165511 23 232 0.0 0.0 0.00 0.03 0.00 57 1005.1
20200606165001 23 232 0.0 0.0 0.00 0.03 0.00 58 1005.1
20200606164548 23 210 0.0 0.0 0.00 0.03 0.00 55 1004.7
20200606164449 23 224 0.0 0.0 0.00 0.03 0.00 55 1005.1
20200606163939 23 252 0.0 0.0 0.00 0.03 0.00 54 1005.1
20200606163429 23 242 0.0 8.0 0.00 0.03 0.00 54 1005.0
20200606163204 23 252 0.0 8.0 0.00 0.03 0.00 54 1004.7
20200606162920 23 256 0.0 8.0 0.00 0.03 0.00 54 1005.0
20200606162408 23 207 1.6 17.7 0.00 0.03 0.00 57 1005.0
20200606161858 23 247 1.6 17.7 0.00 0.03 0.00 53 1004.9
20200606161613 23 238 0.0 14.5 0.00 0.03 0.00 53 1004.6
20200606161359 23 228 1.6 14.5 0.00 0.03 0.00 54 1004.9
20200606160849 23 225 3.2 17.7 0.00 0.03 0.00 55 1004.9
20200606160339 23 244 3.2 17.7 0.00 0.03 0.00 55 1004.8
20200606160020 23 203 4.8 17.7 0.00 0.03 0.00 53 1004.5
20200606155830 23 269 1.6 17.7 0.00 0.03 0.00 53 1004.8
20200606155318 23 241 3.2 19.3 0.00 0.03 0.00 53 1004.8
20200606154820 23 220 3.2 19.3 0.00 0.03 0.00 53 1004.9
20200606154752 23 252 0.0 19.3 0.00 0.05 0.00 54 1004.6
20200606154309 23 249 3.2 19.3 0.00 0.03 0.00 53 1004.8
20200606153759 23 232 4.8 19.3 0.00 0.03 0.00 52 1004.8
20200606153249 24 239 6.4 20.9 0.00 0.03 0.00 51 1004.6
20200606153022 23 230 6.4 19.3 0.00 0.05 0.00 50 1004.4
20200606152740 24 224 8.0 27.4 0.00 0.03 0.00 50 1004.6
20200606152229 24 205 4.8 27.4 0.00 0.03 0.00 50 1004.8
20200606151759 24 242 0.0 17.7 0.00 0.05 0.00 50 1004.5
20200606151720 25 229 4.8 17.7 0.00 0.03 0.00 50 1004.8
20200606151209 25 269 4.8 20.9 0.00 0.03 0.00 51 1004.8
20200606150659 25 233 1.6 20.9 0.00 0.03 0.00 51 1004.8
20200606150149 25 195 0.0 12.9 0.00 0.03 0.00 50 1004.8
20200606150026 25 221 0.0 12.9 0.00 0.05 0.00 49 1004.5
20200606145639 25 211 1.6 16.1 0.00 0.05 0.00 50 1004.6
20200606145129 25 219 4.8 20.9 0.00 0.05 0.00 52 1004.8
20200606144704 24 248 1.6 20.9 0.00 0.05 0.00 51 1004.6
20200606144620 25 213 4.8 20.9 0.00 0.05 0.00 51 1004.9
20200606144109 25 221 0.0 11.3 0.00 0.05 0.00 53 1005.0
20200606143601 24 250 3.2 22.5 0.00 0.05 0.00 52 1005.0
20200606143139 23 226 3.2 22.5 0.00 0.05 0.00 55 1004.7
20200606143113 24 242 4.8 22.5 0.00 0.05 0.00 55 1005.0
20200606142538 24 254 1.6 20.9 0.00 0.05 0.00 55 1005.0
20200606142030 24 255 0.0 12.9 0.00 0.05 0.00 57 1005.0
20200606141614 23 250 0.0 9.7 0.00 0.05 0.00 58 1004.7
20200606141520 23 278 0.0 11.3 0.00 0.05 0.00 57 1005.0
20200606141009 23 223 0.0 14.5 0.00 0.05 0.00 58 1005.0
20200606140457 23 207 0.0 14.5 0.00 0.05 0.00 57 1005.1
20200606140027 23 243 0.0 12.9 0.00 0.05 0.00 58 1004.8
20200606135947 23 219 0.0 19.3 0.00 0.05 0.00 57 1005.1
20200606135435 23 207 1.6 19.3 0.00 0.05 0.00 55 1005.1
20200606134925 23 276 6.4 19.3 0.00 0.05 0.00 55 1005.1
20200606134723 23 247 8.0 19.3 0.00 0.05 0.00 54 1004.8
20200606134415 24 231 4.8 19.3 0.00 0.05 0.00 53 1005.1
20200606133905 24 129 4.8 20.9 0.00 0.05 0.00 53 1005.1
20200606133355 23 202 6.4 20.9 0.00 0.05 0.00 54 1005.2
20200606133027 23 188 8.0 20.9 0.00 0.05 0.00 53 1005.0
20200606132845 23 210 4.8 20.9 0.00 0.05 0.00 53 1005.2
20200606132335 23 226 4.8 20.9 0.00 0.05 0.00 53 1005.2
20200606131824 24 215 1.6 16.1 0.00 0.05 0.00 53 1005.2
20200606131633 23 229 0.0 12.9 0.00 0.05 0.00 54 1005.0
20200606131316 24 272 3.2 20.9 0.00 0.05 0.00 55 1005.2
20200606130815 23 200 4.8 20.9 0.00 0.05 0.00 54 1005.3
20200606130317 23 208 3.2 16.1 0.00 0.05 0.00 55 1005.4
20200606130052 23 227 0.0 14.5 0.00 0.05 0.00 56 1005.1
20200606125807 23 257 1.6 16.1 0.00 0.05 0.00 55 1005.4
20200606125257 23 160 6.4 22.5 0.00 0.05 0.00 54 1005.5
20200606124739 23 263 9.7 22.5 0.00 0.05 0.00 53 1005.6
20200606124510 23 180 9.7 20.9 0.00 0.05 0.00 53 1005.4
20200606124229 23 222 4.8 19.3 0.00 0.05 0.00 54 1005.6
20200606123315 23 242 9.7 24.1 0.00 0.05 0.00 55 1005.4
20200606123200 23 225 6.4 24.1 0.00 0.05 0.00 56 1005.5
20200606122648 23 257 8.0 22.5 0.00 0.05 0.00 53 1005.6
20200606122138 23 238 4.8 22.5 0.00 0.05 0.00 53 1005.6
20200606121628 23 179 1.6 17.7 0.00 0.05 0.00 55 1005.6
20200606121506 23 207 0.0 16.1 0.00 0.05 0.00 55 1005.5
20200606121117 23 190 0.0 17.7 0.00 0.05 0.00 53 1005.7
20200606120606 23 188 1.6 22.5 0.00 0.05 0.00 57 1005.7
20200606120121 23 178 0.0 22.5 0.00 0.05 0.00 57 1005.6
20200606120056 23 194 3.2 22.5 0.00 0.05 0.00 55 1005.7
20200606115547 23 207 6.4 30.6 0.00 0.05 0.00 56 1005.7
20200606115040 23 239 8.0 30.6 0.00 0.05 0.00 55 1005.8
20200606114531 23 155 6.4 22.5 0.00 0.05 0.00 56 1005.8
20200606114510 22 165 4.8 22.5 0.00 0.05 0.00 55 1005.6
20200606114026 23 270 8.0 29.0 0.00 0.05 0.00 60 1005.7
20200606113527 22 234 4.8 29.0 0.00 0.05 0.00 56 1005.7
20200606113137 22 217 8.0 25.7 0.00 0.05 0.00 56 1005.5
20200606113011 23 220 6.4 30.6 0.00 0.05 0.00 56 1005.7
20200606112508 22 251 9.7 30.6 0.00 0.05 0.00 56 1005.6
20200606112000 22 285 8.0 24.1 0.00 0.05 0.00 56 1005.7
20200606111546 22 250 9.7 22.5 0.00 0.05 0.00 56 1005.6
20200606111454 23 245 8.0 22.5 0.00 0.05 0.00 56 1005.8
20200606110948 22 234 4.8 25.7 0.00 0.05 0.00 60 1005.7
20200606110446 22 231 3.2 22.5 0.00 0.05 0.00 58 1005.6
20200606110021 22 311 3.2 19.3 0.00 0.05 0.00 60 1005.5
20200606105940 22 232 4.8 19.3 0.00 0.05 0.00 58 1005.6
20200606105441 22 248 4.8 22.5 0.00 0.05 0.00 59 1005.6
20200606104933 22 241 6.4 25.7 0.00 0.05 0.00 58 1005.6
20200606104502 22 232 3.2 25.7 0.00 0.08 0.00 60 1005.6
20200606104427 22 232 8.0 25.7 0.00 0.05 0.00 58 1005.7
20200606103917 22 204 9.7 27.4 0.00 0.05 0.00 58 1005.7
20200606103441 22 248 9.7 29.0 0.00 0.05 0.00 58 1005.7
20200606103143 21 254 11.3 37.0 0.00 0.08 0.00 56 1005.7
20200606102919 22 230 11.3 37.0 0.00 0.05 0.00 57 1005.8
20200606102351 22 204 8.0 37.0 0.00 0.05 0.00 57 1005.9
20200606101850 22 223 8.0 24.1 0.00 0.05 0.00 57 1005.7
20200606101547 21 192 1.6 24.1 0.00 0.08 0.00 57 1005.7
20200606101349 21 227 11.3 24.1 0.00 0.08 0.00 58 1005.7
20200606100850 21 224 11.3 30.6 0.00 0.08 0.00 56 1005.8
20200606100338 21 211 14.5 37.0 0.00 0.08 0.00 57 1005.7
20200606100017 21 244 8.0 37.0 0.00 0.08 0.00 57 1005.7
20200606095838 21 139 14.5 37.0 0.00 0.08 0.00 58 1005.8
20200606095329 21 229 8.0 25.7 0.00 0.10 0.00 57 1005.9
20200606094819 21 192 4.8 22.5 0.00 0.10 0.00 58 1005.7
20200606094616 21 217 6.4 20.9 0.00 0.30 0.00 59 1005.6
20200606094310 21 188 6.4 22.5 0.00 0.13 0.00 58 1005.8
20200606093802 21 205 4.8 30.6 0.00 0.13 0.00 59 1005.7
20200606093254 21 225 4.8 30.6 0.00 0.15 0.00 60 1005.8
20200606093118 20 212 4.8 30.6 0.00 0.30 0.00 59 1005.7
20200606092744 21 184 9.7 24.1 0.00 0.15 0.00 60 1005.8
20200606092235 20 247 12.9 25.7 0.00 0.15 0.00 60 1005.7
20200606091725 20 192 12.9 27.4 0.00 0.18 0.00 60 1005.7
20200606091700 20 213 11.3 27.4 0.00 0.30 0.00 60 1005.7
20200606091214 20 217 11.3 32.2 0.00 0.20 0.00 61 1005.7
20200606090703 20 223 11.3 32.2 0.00 0.28 0.00 60 1005.6
20200606090154 20 203 12.9 29.0 0.00 0.30 0.00 61 1005.5
20200606090046 20 206 9.7 29.0 0.00 0.30 0.00 60 1005.5
20200606085644 20 213 11.3 25.7 0.00 0.33 0.00 62 1005.6
20200606085135 20 227 11.3 30.6 0.00 0.33 0.00 61 1005.7
20200606084733 20 213 9.7 30.6 0.00 0.33 0.00 61 1005.5
20200606084624 20 229 14.5 30.6 0.00 0.33 0.00 62 1005.6
20200606084112 20 213 11.3 30.6 0.00 0.33 0.00 62 1005.4
20200606083602 20 202 9.7 25.7 0.00 0.33 0.00 62 1005.3
20200606083044 20 251 8.0 25.7 0.00 0.33 0.00 62 1005.4
20200606083024 19 242 11.3 25.7 0.00 0.33 0.00 62 1005.4
20200606082528 20 242 4.8 19.3 0.00 0.33 0.00 66 1005.5
20200606082018 19 235 9.7 25.7 0.00 0.33 0.00 64 1005.5
20200606081628 19 235 12.9 25.7 0.00 0.33 0.00 63 1005.5
20200606081509 19 231 8.0 25.7 0.00 0.33 0.00 63 1005.6
20200606080956 19 217 6.4 29.0 0.00 0.33 0.00 63 1005.6
20200606080446 19 229 11.3 29.0 0.00 0.33 0.00 65 1005.4
20200606080020 19 204 11.3 25.7 0.00 0.33 0.00 62 1005.5
20200606075935 19 180 11.3 27.4 0.00 0.33 0.00 63 1005.5
20200606075426 19 189 8.0 25.7 0.00 0.33 0.00 64 1005.5
20200606074915 19 265 4.8 24.1 0.00 0.33 0.00 64 1005.4
20200606074652 18 223 0.0 20.9 0.00 0.36 0.00 66 1005.2
20200606074406 18 227 9.7 25.7 0.00 0.33 0.00 65 1005.3
20200606073856 18 226 14.5 25.7 0.00 0.33 0.00 65 1005.4
20200606073346 18 257 9.7 30.6 0.00 0.33 0.00 64 1005.5
20200606073021 18 193 11.3 30.6 0.00 0.36 0.00 66 1005.4
20200606072836 18 244 9.7 30.6 0.00 0.33 0.00 66 1005.4
20200606072326 18 173 8.0 25.7 0.00 0.33 0.00 67 1005.3
20200606071815 18 171 4.8 20.9 0.00 0.36 0.00 68 1005.3
20200606071623 18 173 0.0 25.7 0.00 0.36 0.00 69 1005.1
20200606071306 18 194 6.4 30.6 0.00 0.36 0.00 68 1005.2
20200606070756 18 204 6.4 30.6 0.00 0.36 0.00 67 1005.2
20200606070238 18 237 8.0 27.4 0.00 0.36 0.00 70 1005.2
20200606070012 17 194 11.3 25.7 0.00 0.36 0.00 69 1005.1
20200606065728 17 256 6.4 27.4 0.00 0.36 0.00 69 1005.2
20200606065216 17 195 6.4 27.4 0.00 0.36 0.00 70 1005.2
20200606064722 17 200 8.0 27.4 0.00 0.36 0.00 69 1005.3
20200606064634 17 247 8.0 27.4 0.00 0.38 0.00 69 1005.1
20200606064148 17 268 4.8 27.4 0.00 0.38 0.00 70 1005.3
20200606063639 17 201 1.6 14.5 0.00 0.38 0.00 71 1005.3
20200606063129 17 181 3.2 24.1 0.00 0.38 0.00 72 1005.4
20200606063002 17 219 0.0 24.1 0.00 0.38 0.00 71 1005.3
20200606062611 17 230 3.2 24.1 0.00 0.38 0.00 70 1005.5
20200606062101 17 207 3.2 16.1 0.00 0.38 0.00 73 1005.4
20200606061632 17 214 3.2 22.5 0.00 0.38 0.00 73 1005.2
20200606061552 17 239 1.6 22.5 0.00 0.38 0.00 73 1005.3
20200606061041 17 176 3.2 22.5 0.00 0.38 0.00 74 1005.3
20200606060534 16 246 6.4 25.7 0.00 0.38 0.00 75 1005.1
20200606060132 16 216 3.2 25.7 0.00 0.38 0.00 75 1004.8
20200606060036 16 240 9.7 25.7 0.00 0.38 0.00 75 1004.9
20200606055513 16 225 8.0 24.1 0.00 0.38 0.00 77 1004.8
20200606055001 16 212 11.3 24.1 0.00 0.38 0.00 77 1004.8
20200606054552 15 228 9.7 24.1 0.00 0.38 0.00 77 1004.6
20200606054450 16 232 12.9 24.1 0.00 0.38 0.00 78 1004.8
20200606053940 15 197 12.9 24.1 0.00 0.38 0.00 77 1004.6
20200606053431 15 217 11.3 19.3 0.00 0.38 0.00 79 1004.6
20200606052913 15 193 9.7 19.3 0.00 0.38 0.00 80 1004.8
20200606052403 15 154 9.7 22.5 0.00 0.38 0.00 81 1004.9
20200606051853 15 188 11.3 22.5 0.00 0.38 0.00 81 1005.0
20200606051535 15 229 9.7 19.3 0.00 0.38 0.00 81 1004.8
20200606051343 15 212 11.3 20.9 0.00 0.38 0.00 81 1004.9
20200606050833 15 219 8.0 19.3 0.00 0.38 0.00 81 1004.8
20200606050322 15 220 6.4 14.5 0.00 0.38 0.00 82 1004.6
20200606050117 14 232 6.4 14.5 0.00 0.38 0.00 82 1004.6
20200606045813 15 223 8.0 14.5 0.00 0.38 0.00 83 1004.6
20200606045303 15 223 8.0 14.5 0.00 0.38 0.00 83 1004.5
20200606044753 14 223 8.0 16.1 0.00 0.38 0.00 83 1004.3
20200606044529 14 193 8.0 16.1 0.00 0.38 0.00 83 1004.3
20200606044235 14 229 6.4 14.5 0.00 0.38 0.00 83 1004.3
20200606043725 14 200 8.0 16.1 0.00 0.38 0.00 83 1003.8
20200606043217 14 134 8.0 16.1 0.00 0.38 0.00 84 1003.9
20200606043139 13 198 6.4 16.1 0.00 0.38 0.00 84 1003.9
20200606043035 13 201 8.0 16.1 0.00 0.38 0.00 84 1003.9
20200606042711 13 157 8.0 16.1 0.00 0.38 0.00 85 1004.1
20200606042205 13 208 8.0 17.7 0.00 0.38 0.00 85 1004.2
20200606041702 13 199 8.0 20.9 0.00 0.38 0.00 86 1004.1
20200606041609 13 227 8.0 20.9 0.00 0.38 0.00 86 1004.2
20200606041200 13 215 9.7 20.9 0.00 0.38 0.00 87 1004.1
20200606040654 13 227 11.3 19.3 0.00 0.38 0.00 87 1004.0
20200606040148 13 222 9.7 20.9 0.00 0.38 0.00 87 1004.3
20200606040054 12 236 9.7 19.3 0.00 0.38 0.00 87 1004.3
20200606035642 13 221 6.4 24.1 0.00 0.38 0.00 88 1004.2
20200606035138 13 213 6.4 24.1 0.00 0.38 0.00 88 1004.1
20200606034631 13 223 9.7 17.7 0.00 0.38 0.00 88 1004.1
20200606034510 12 227 11.3 17.7 0.00 0.38 0.00 88 1004.0
20200606034126 12 182 9.7 17.7 0.00 0.38 0.00 88 1003.9
20200606033620 12 262 9.7 20.9 0.00 0.38 0.00 88 1003.9
20200606033124 12 223 12.9 19.3 0.00 0.38 0.00 88 1003.8
20200606033115 12 245 8.0 20.9 0.00 0.38 0.00 88 1003.8
20200606032605 12 221 8.0 22.5 0.00 0.38 0.00 88 1003.6
20200606032102 12 235 9.7 22.5 0.00 0.38 0.00 89 1003.6
20200606031646 12 202 9.7 16.1 0.00 0.38 0.00 89 1003.5
20200606031551 12 186 8.0 17.7 0.00 0.38 0.00 89 1003.5
20200606031054 12 242 6.4 17.7 0.00 0.38 0.00 89 1003.6
20200606030552 12 224 8.0 24.1 0.00 0.38 0.00 89 1003.5
20200606030046 12 220 8.0 24.1 0.00 0.38 0.00 88 1003.5
20200606025540 12 184 6.4 19.3 0.00 0.38 0.00 88 1003.5
20200606025037 12 200 4.8 19.3 0.00 0.38 0.00 89 1003.4
20200606024529 12 200 4.8 16.1 0.00 0.38 0.00 89 1003.3
20200606024019 12 262 6.4 17.7 0.00 0.38 0.00 89 1003.3
20200606023513 12 175 6.4 17.7 0.00 0.38 0.00 89 1003.3
20200606023325 12 190 6.4 16.1 0.00 0.38 0.00 89 1003.2
20200606023013 12 192 6.4 16.1 0.00 0.38 0.00 89 1003.3
20200606022504 12 194 6.4 17.7 0.00 0.38 0.00 90 1003.2
20200606021955 12 222 8.0 16.1 0.00 0.38 0.00 90 1003.2
20200606021608 12 217 8.0 14.5 0.00 0.38 0.00 90 1003.2
20200606021449 12 227 9.7 16.1 0.00 0.38 0.00 90 1003.2
20200606020945 12 223 9.7 19.3 0.00 0.38 0.00 90 1003.2
20200606020434 12 207 8.0 19.3 0.00 0.38 0.00 90 1003.3
20200606020017 12 198 6.4 19.3 0.00 0.38 0.00 90 1003.2
20200606015924 12 152 9.7 20.9 0.00 0.38 0.00 90 1003.2
20200606015420 12 205 11.3 20.9 0.00 0.38 0.00 90 1003.1
20200606014913 12 175 11.3 20.9 0.00 0.38 0.00 90 1003.1
20200606014617 12 228 9.7 19.3 0.00 0.38 0.00 90 1003.0
20200606014407 12 243 11.3 22.5 0.00 0.38 0.00 90 1003.2
20200606013351 12 224 9.7 19.3 0.00 0.38 0.00 90 1003.1
20200606013104 12 216 8.0 17.7 0.00 0.38 0.00 90 1003.0
20200606012840 12 248 9.7 19.3 0.00 0.38 0.00 90 1003.1
20200606012332 12 223 11.3 20.9 0.00 0.38 0.00 90 1003.0
20200606011827 12 225 9.7 20.9 0.00 0.38 0.00 90 1002.9
20200606011609 12 192 11.3 17.7 0.00 0.38 0.00 90 1002.8
20200606011318 12 200 9.7 19.3 0.00 0.38 0.00 90 1002.8
20200606010807 12 234 9.7 19.3 0.00 0.38 0.00 90 1002.8
20200606010258 12 208 9.7 19.3 0.00 0.38 0.00 90 1002.8
20200606010039 12 140 4.8 19.3 0.00 0.38 0.00 90 1002.6
20200606005747 12 196 11.3 22.5 0.00 0.38 0.00 90 1002.8
20200606005237 12 191 9.7 22.5 0.00 0.38 0.00 90 1002.7
20200606004726 12 211 11.3 27.4 0.00 0.38 0.00 89 1002.7
20200606004718 12 207 8.0 27.4 0.00 0.38 0.00 89 1002.6
20200606004217 12 211 11.3 27.4 0.00 0.38 0.00 90 1002.7
20200606003707 13 224 11.3 27.4 0.00 0.38 0.00 89 1002.7
20200606003157 13 263 11.3 27.4 0.00 0.38 0.00 90 1002.7
20200606003102 12 209 12.9 25.7 0.00 0.38 0.00 89 1002.6
20200606002647 12 198 11.3 22.5 0.00 0.38 0.00 89 1002.7
20200606002137 12 225 11.3 22.5 0.00 0.38 0.00 89 1002.5
20200606001627 12 220 9.7 20.9 0.00 0.38 0.00 89 1002.6
20200606001117 12 223 9.7 19.3 0.00 0.38 0.00 89 1002.6
20200606000607 13 192 9.7 19.3 0.00 0.38 0.00 89 1002.5
20200606000106 12 229 9.7 24.1 0.00 0.38 0.00 88 1002.3
20200606000057 13 198 11.3 27.4 0.00 0.38 0.00 88 1002.4
20200605235547 13 204 11.3 27.4 0.00 0.38 0.00 89 1002.3
20200605235039 12 206 9.7 19.3 0.00 0.38 0.00 89 1002.3
20200605234529 12 244 9.7 19.3 0.00 0.38 0.00 89 1002.1
20200605234511 12 238 9.7 19.3 0.00 0.38 0.00 89 1002.0
20200605234019 12 223 9.7 17.7 0.00 0.38 0.00 89 1002.1
20200605233510 12 219 9.7 17.7 0.00 0.38 0.00 89 1002.0
20200605233038 12 234 8.0 19.3 0.00 0.38 0.00 89 1001.8
20200605232957 12 257 9.7 20.9 0.00 0.38 0.00 89 1001.9
20200605232447 12 236 11.3 20.9 0.00 0.38 0.00 89 1001.8
20200605231937 12 180 11.3 24.1 0.00 0.38 0.00 89 1001.7
20200605231504 12 198 14.5 24.1 0.00 0.38 0.00 90 1001.5
20200605231448 12 219 11.3 24.1 0.00 0.38 0.00 90 1001.6
20200605230917 12 239 11.3 19.3 0.00 0.38 0.00 90 1001.6
20200605230408 12 217 11.3 22.5 0.00 0.38 0.00 90 1001.5
20200605230042 12 194 9.7 22.5 0.00 0.38 0.00 90 1001.4
20200605225857 12 208 11.3 19.3 0.00 0.38 0.00 90 1001.5
20200605225345 12 196 11.3 20.9 0.00 0.38 0.00 91 1001.4
20200605224510 12 228 6.4 14.5 0.00 0.38 0.00 91 1001.3
20200605224325 12 173 6.4 14.5 0.00 0.38 0.00 90 1001.4
20200605223816 12 227 8.0 14.5 0.00 0.38 0.00 90 1001.4
20200605223305 13 226 8.0 14.5 0.00 0.38 0.00 90 1001.5
20200605222759 13 241 8.0 17.7 0.00 0.38 0.00 90 1001.4
20200605222250 13 197 9.7 19.3 0.00 0.38 0.00 90 1001.4
20200605221736 13 213 8.0 19.3 0.00 0.38 0.00 90 1001.3
20200605221252 13 246 6.4 14.5 0.00 0.38 0.00 90 1001.3
20200605220716 13 177 6.4 16.1 0.00 0.38 0.00 91 1001.2
20200605220205 13 192 6.4 16.1 0.00 0.38 0.00 91 1001.1
20200605220130 12 192 8.0 16.1 0.00 0.38 0.00 91 1000.9
20200605215700 13 191 4.8 12.9 0.00 0.38 0.38 91 1001.1
20200605215149 13 232 8.0 16.1 0.00 0.38 0.38 91 1001.0
20200605214640 13 203 8.0 16.1 0.00 0.38 0.38 91 1001.0
20200605214523 12 196 9.7 16.1 0.00 0.38 0.38 91 1000.8
20200605214130 13 234 6.4 17.7 0.00 0.38 0.38 91 1001.0
20200605213617 13 207 6.4 17.7 0.00 0.38 0.38 91 1000.9
20200605213125 12 196 6.4 16.1 0.00 0.38 0.38 92 1000.7
20200605213108 13 196 8.0 16.1 0.00 0.38 0.38 92 1000.9
20200605212557 13 203 8.0 16.1 0.00 0.38 0.38 92 1000.9
20200605212048 13 230 6.4 14.5 0.00 0.38 0.38 92 1000.8
20200605211552 12 167 6.4 14.5 0.00 0.38 0.38 92 1000.6
20200605211549 13 165 6.4 14.5 0.00 0.38 0.38 92 1000.8
20200605211040 13 155 3.2 14.5 0.00 0.38 0.38 92 1001.0
20200605210533 13 230 0.0 6.4 0.00 0.38 0.38 92 1000.9
20200605210211 12 225 0.0 6.4 0.00 0.38 0.38 93 1000.6
20200605210036 13 189 1.6 4.8 0.00 0.38 0.38 93 1000.8
20200605205511 12 142 3.2 11.3 0.00 0.38 0.38 93 1000.7
20200605204958 12 243 3.2 11.3 0.00 0.38 0.38 93 1000.7
20200605204625 12 188 0.0 16.1 0.00 0.43 0.38 93 1000.3
20200605204448 12 227 4.8 16.1 0.00 0.38 0.38 93 1000.6
20200605203938 12 175 4.8 16.1 0.00 0.38 0.38 93 1000.7
20200605203426 12 257 0.0 16.1 0.00 0.38 0.38 93 1000.7
20200605203316 12 190 0.0 3.2 0.00 0.43 0.38 93 1000.4
20200605202917 12 148 0.0 3.2 0.00 0.38 0.38 93 1000.6
20200605202406 12 187 0.0 11.3 0.00 0.38 0.38 93 1000.6
20200605201857 12 128 0.0 11.3 0.00 0.41 0.38 93 1000.6
20200605201536 12 148 0.0 0.0 0.00 0.43 0.38 93 1000.4
20200605201347 13 233 0.0 0.0 0.00 0.43 0.38 93 1000.6
20200605200837 13 213 0.0 0.0 0.00 0.43 0.38 93 1000.6
20200605200327 13 117 0.0 11.3 0.00 0.43 0.38 93 1000.6
20200605200215 12 156 0.0 11.3 0.00 0.43 0.38 93 1000.4
20200605195817 13 158 0.0 11.3 0.00 0.43 0.38 93 1000.6
20200605195307 13 173 0.0 0.0 0.00 0.43 0.38 93 1000.6
20200605194755 13 92 0.0 0.0 0.00 0.43 0.38 93 1000.6
20200605194604 12 263 0.0 0.0 0.00 0.43 0.38 93 1000.4
20200605194245 13 151 0.0 0.0 0.00 0.43 0.38 93 1000.5
20200605193735 13 190 0.0 0.0 0.00 0.43 0.38 93 1000.5
20200605193225 13 91 0.0 0.0 0.00 0.43 0.38 93 1000.5
20200605193213 13 237 0.0 0.0 0.00 0.43 0.38 92 1000.3
20200605192714 13 237 0.0 0.0 0.00 0.43 0.38 93 1000.5
20200605192204 13 236 0.0 0.0 0.00 0.43 0.38 93 1000.5
20200605191654 13 223 0.0 0.0 0.00 0.43 0.38 93 1000.4
20200605191619 13 213 0.0 0.0 0.00 0.43 0.38 93 1000.1
20200605191145 13 173 0.0 0.0 0.00 0.43 0.38 93 1000.2
20200605190635 13 231 0.0 0.0 0.00 0.43 0.38 93 1000.2
20200605190153 13 211 0.0 0.0 0.00 0.43 0.38 93 999.8
20200605190126 13 215 0.0 0.0 0.00 0.43 0.38 93 999.9
20200605185615 13 157 0.0 0.0 0.00 0.43 0.38 93 999.7
20200605185105 13 119 0.0 0.0 0.00 0.43 0.38 94 999.6
20200605184637 13 142 0.0 0.0 0.00 0.43 0.38 94 999.3
20200605184559 13 142 0.0 0.0 0.00 0.43 0.38 94 999.5
20200605184048 13 155 0.0 0.0 0.00 0.43 0.38 94 999.5
20200605183543 14 151 0.0 0.0 0.00 0.43 0.38 94 999.4
20200605183036 13 182 0.0 0.0 0.00 0.43 0.38 94 999.4
20200605183020 13 182 0.0 0.0 0.00 0.43 0.38 94 999.3
20200605182523 13 138 0.0 0.0 0.00 0.43 0.38 94 999.5
20200605182024 13 138 0.0 0.0 0.03 0.43 0.38 94 999.3
20200605181612 13 142 0.0 0.0 0.03 0.43 0.38 94 999.2
20200605181518 13 142 0.0 0.0 0.03 0.43 0.38 94 999.4
20200605181008 13 167 0.0 0.0 0.03 0.43 0.38 93 999.4
20200605180508 13 167 0.0 0.0 0.03 0.43 0.38 93 999.4
20200605180118 13 167 0.0 0.0 0.03 0.43 0.38 93 999.2